Time;durP1;ratioP1;P1;durP2;ratioP2;P2;SDS_P1;SDS_P2;PMS_P1;PMS_P2;Temp;Humidity;BMP_temperature;BMP_pressure;BME280_temperature;BME280_humidity;BME280_pressure;Samples;Min_cycle;Max_cycle;Signal;HPM_P1;HPM_P2
2021/01/05 00:02:25;;;;;;;14.87;13.37;;;2.00;99.90;;;;;;5055886;28;20642;-96
2021/01/05 00:04:59;;;;;;;13.73;12.47;;;2.00;99.90;;;;;;5058763;28;20675;-96
2021/01/05 00:07:35;;;;;;;15.77;13.37;;;1.90;99.90;;;;;;5069204;28;20724;-96
2021/01/05 00:10:27;;;;;;;16.17;14.60;;;1.90;99.90;;;;;;5058270;28;20719;-96
2021/01/05 00:12:57;;;;;;;13.47;12.17;;;1.80;99.90;;;;;;5057416;28;20634;-96
2021/01/05 00:15:24;;;;;;;14.10;12.80;;;1.80;99.90;;;;;;5046205;28;20656;-96
2021/01/05 00:18:09;;;;;;;15.40;13.90;;;1.80;99.90;;;;;;5044201;28;20630;-96
2021/01/05 00:20:53;;;;;;;15.67;13.87;;;1.80;99.90;;;;;;5047021;28;20711;-95
2021/01/05 00:23:20;;;;;;;17.43;15.13;;;1.90;99.90;;;;;;5067028;28;20643;-94
2021/01/05 00:25:47;;;;;;;15.57;14.07;;;1.90;99.90;;;;;;5042147;28;20685;-95
2021/01/05 00:28:22;;;;;;;17.40;15.67;;;2.00;99.90;;;;;;5043635;28;20652;-94
2021/01/05 00:30:49;;;;;;;17.17;15.53;;;2.00;99.90;;;;;;5021731;28;20965;-94
2021/01/05 00:33:15;;;;;;;19.37;17.57;;;2.00;99.90;;;;;;5028104;28;20639;-94
2021/01/05 00:35:45;;;;;;;17.83;16.13;;;2.00;99.90;;;;;;5040008;28;21470;-94
2021/01/05 00:38:12;;;;;;;19.40;17.40;;;2.10;99.90;;;;;;5055722;28;20983;-94
2021/01/05 00:40:41;;;;;;;16.00;14.30;;;2.00;99.90;;;;;;5051980;28;20744;-95
2021/01/05 00:43:14;;;;;;;18.20;16.27;;;1.80;99.90;;;;;;5039650;28;20647;-95
2021/01/05 00:45:42;;;;;;;19.53;17.57;;;1.80;99.90;;;;;;5041098;28;21225;-96
2021/01/05 00:48:08;;;;;;;17.93;16.07;;;1.90;99.90;;;;;;5061159;28;20674;-94
2021/01/05 00:53:39;;;;;;;18.70;16.63;;;1.80;99.90;;;;;;5189840;23;20659;-96
2021/01/05 01:30:36;;;;;;;19.40;17.40;;;2.00;99.90;;;;;;4998817;28;21238;-95
2021/01/05 01:33:03;;;;;;;19.23;17.30;;;1.90;99.90;;;;;;4985989;28;20692;-95
2021/01/05 01:35:30;;;;;;;19.33;16.97;;;1.90;99.90;;;;;;4990674;28;20660;-95
2021/01/05 01:37:56;;;;;;;19.10;17.00;;;1.90;99.90;;;;;;5017629;28;20613;-95
2021/01/05 01:40:32;;;;;;;17.70;15.80;;;1.90;99.90;;;;;;5011963;28;20669;-95
2021/01/05 01:53:51;;;;;;;18.70;16.57;;;2.00;99.90;;;;;;5237437;22;21302;-96
2021/01/05 01:57:01;;;;;;;17.53;15.77;;;1.90;99.90;;;;;;5038872;28;20679;-96
2021/01/05 02:00:00;;;;;;;14.97;13.47;;;2.00;99.90;;;;;;5056886;28;20653;-96
2021/01/05 02:02:59;;;;;;;17.30;15.07;;;2.10;99.90;;;;;;5055623;28;20646;-96
2021/01/05 02:05:32;;;;;;;17.27;15.47;;;2.10;99.90;;;;;;5057267;28;20678;-96
2021/01/05 02:08:27;;;;;;;18.37;15.27;;;2.00;99.90;;;;;;5052539;28;20678;-96
2021/01/05 02:11:22;;;;;;;16.53;14.80;;;2.00;99.90;;;;;;5070353;28;20759;-96
2021/01/05 02:28:25;;;;;;;17.47;15.67;;;2.00;99.90;;;;;;5051564;28;20581;-96
2021/01/05 02:31:01;;;;;;;16.90;15.17;;;2.00;99.90;;;;;;5055189;28;20740;-95
2021/01/05 02:33:41;;;;;;;17.13;15.50;;;2.00;99.90;;;;;;5039510;28;20669;-96
2021/01/05 02:40:11;;;;;;;17.47;15.63;;;1.90;99.90;;;;;;5023428;28;20542;-96
2021/01/05 02:43:08;;;;;;;17.70;15.93;;;1.90;99.90;;;;;;5030672;28;20671;-96
2021/01/05 02:45:38;;;;;;;18.57;16.30;;;2.00;99.90;;;;;;5021551;28;20623;-96
2021/01/05 02:48:38;;;;;;;17.77;15.87;;;2.10;99.90;;;;;;5036763;28;21210;-95
2021/01/05 02:51:27;;;;;;;20.77;18.57;;;2.00;99.90;;;;;;5037221;28;20632;-94
2021/01/05 02:54:26;;;;;;;20.13;17.70;;;2.00;99.90;;;;;;5017961;28;20662;-95
2021/01/05 02:57:11;;;;;;;21.40;19.10;;;2.10;99.90;;;;;;5002367;28;20629;-93
2021/01/05 03:00:04;;;;;;;18.43;16.57;;;2.10;99.90;;;;;;5014597;28;20691;-95
2021/01/05 03:03:15;;;;;;;20.40;18.00;;;1.90;99.90;;;;;;5014803;28;20711;-95
2021/01/05 03:05:45;;;;;;;25.70;23.00;;;2.00;99.90;;;;;;5022936;28;21078;-95
2021/01/05 03:49:33;;;;;;;26.63;21.70;;;2.50;99.90;;;;;;5054732;28;21369;-96
2021/01/05 04:04:57;;;;;;;24.67;22.10;;;2.40;99.90;;;;;;5332186;22;21206;-93
2021/01/05 04:07:24;;;;;;;26.10;21.90;;;2.50;99.90;;;;;;5053979;28;20640;-94
2021/01/05 04:09:50;;;;;;;27.47;23.47;;;2.30;99.90;;;;;;5019718;28;20664;-94
2021/01/05 04:12:17;;;;;;;27.30;24.00;;;2.30;99.90;;;;;;5037598;28;20638;-94
2021/01/05 04:14:43;;;;;;;28.67;24.00;;;2.30;99.90;;;;;;5017312;28;20834;-96
2021/01/05 04:17:10;;;;;;;25.03;22.33;;;2.40;99.90;;;;;;5010169;28;20663;-95
2021/01/05 04:19:36;;;;;;;26.63;23.83;;;2.40;99.90;;;;;;4983707;28;20667;-94
2021/01/05 04:22:04;;;;;;;25.70;22.87;;;2.30;99.90;;;;;;5010784;28;20642;-93
2021/01/05 04:24:30;;;;;;;29.20;25.80;;;2.40;99.90;;;;;;5016572;28;20687;-94
2021/01/05 04:26:57;;;;;;;28.03;24.77;;;2.60;99.90;;;;;;4995914;28;20682;-94
2021/01/05 04:29:23;;;;;;;28.93;25.73;;;2.50;99.90;;;;;;5017693;28;20671;-94
2021/01/05 04:31:50;;;;;;;30.40;25.77;;;2.40;99.90;;;;;;5009527;28;20678;-95
2021/01/05 04:34:23;;;;;;;27.10;24.20;;;2.30;99.90;;;;;;5004094;28;20661;-94
2021/01/05 04:36:50;;;;;;;28.10;24.77;;;2.20;99.90;;;;;;5019434;28;20628;-94
2021/01/05 04:39:22;;;;;;;27.83;24.27;;;2.20;99.90;;;;;;5016748;28;20644;-95
2021/01/05 04:41:54;;;;;;;28.23;25.27;;;2.20;99.90;;;;;;5014581;28;20640;-94
2021/01/05 04:44:48;;;;;;;31.33;24.20;;;2.20;99.90;;;;;;5012561;28;20672;-94
2021/01/05 04:47:23;;;;;;;26.93;23.37;;;2.30;99.90;;;;;;5014892;28;20650;-94
2021/01/05 04:50:23;;;;;;;29.20;24.60;;;2.30;99.90;;;;;;5015509;28;20676;-95
2021/01/05 04:52:56;;;;;;;28.30;25.00;;;2.30;99.90;;;;;;5009242;28;20627;-94
2021/01/05 04:58:29;;;;;;;29.30;26.20;;;2.40;99.90;;;;;;5082652;27;20707;-94
2021/01/05 05:01:12;;;;;;;30.83;25.60;;;2.30;99.90;;;;;;5093928;28;20618;-95
2021/01/05 05:03:59;;;;;;;31.00;27.30;;;2.20;99.90;;;;;;5091757;28;20642;-96
2021/01/05 05:06:46;;;;;;;32.80;27.83;;;2.20;99.90;;;;;;5100265;28;20633;-96
2021/01/05 05:09:38;;;;;;;32.23;27.60;;;2.10;99.90;;;;;;5099657;28;20641;-96
2021/01/05 05:12:32;;;;;;;30.67;26.80;;;2.20;99.90;;;;;;5088912;28;20769;-96
2021/01/05 05:15:30;;;;;;;31.90;28.07;;;2.20;99.90;;;;;;5098879;28;20687;-96
2021/01/05 05:18:11;;;;;;;32.50;26.67;;;2.20;99.90;;;;;;5092515;28;20783;-95
2021/01/05 05:20:52;;;;;;;29.50;25.63;;;2.30;99.90;;;;;;5089158;28;20681;-95
2021/01/05 05:23:34;;;;;;;31.10;26.67;;;2.30;99.90;;;;;;5087217;28;21162;-95
2021/01/05 05:26:14;;;;;;;28.57;25.20;;;2.20;99.90;;;;;;5186579;22;20783;-96
2021/01/05 05:28:51;;;;;;;28.70;25.70;;;2.30;99.90;;;;;;5091495;28;20584;-96
2021/01/05 05:31:23;;;;;;;29.20;25.80;;;2.20;99.90;;;;;;5077403;28;20618;-96
2021/01/05 05:37:49;;;;;;;29.17;25.60;;;2.20;99.90;;;;;;5094001;28;20674;-96
2021/01/05 05:40:45;;;;;;;31.50;27.87;;;2.20;99.90;;;;;;5083877;28;20659;-95
2021/01/05 05:43:41;;;;;;;29.03;25.67;;;2.30;99.90;;;;;;5084195;28;21389;-93
2021/01/05 05:46:11;;;;;;;28.87;25.60;;;2.20;99.90;;;;;;5075480;28;20725;-94
2021/01/05 05:48:53;;;;;;;30.90;25.67;;;2.20;99.90;;;;;;5094917;28;20622;-95
2021/01/05 05:51:25;;;;;;;30.43;27.03;;;2.10;99.90;;;;;;5083723;28;20656;-92
2021/01/05 05:53:58;;;;;;;30.83;27.53;;;2.20;99.90;;;;;;5080587;28;20720;-91
2021/01/05 05:56:39;;;;;;;30.20;26.23;;;2.20;99.90;;;;;;5082141;28;20694;-92
2021/01/05 05:59:07;;;;;;;29.83;26.20;;;2.40;99.90;;;;;;5081670;28;20654;-92
2021/01/05 06:01:38;;;;;;;26.50;23.30;;;2.50;99.90;;;;;;5082325;28;20640;-92
2021/01/05 06:04:07;;;;;;;25.63;23.00;;;2.40;99.90;;;;;;5076395;22;21384;-94
2021/01/05 06:06:46;;;;;;;29.40;26.40;;;2.40;99.90;;;;;;5056244;28;20679;-95
2021/01/05 06:09:12;;;;;;;28.57;25.33;;;2.30;99.90;;;;;;5030560;28;20710;-92
2021/01/05 06:11:50;;;;;;;29.87;26.67;;;2.30;99.90;;;;;;5052307;28;21038;-95
2021/01/05 06:14:16;;;;;;;28.57;25.50;;;2.30;99.90;;;;;;5056937;28;20660;-91
2021/01/05 06:16:45;;;;;;;30.37;25.70;;;2.30;99.90;;;;;;5059532;28;20676;-92
2021/01/05 06:19:12;;;;;;;28.70;25.20;;;2.30;99.90;;;;;;5041524;28;20639;-93
2021/01/05 06:21:39;;;;;;;28.47;25.47;;;2.30;99.90;;;;;;5041487;28;20622;-94
2021/01/05 06:24:07;;;;;;;29.80;24.77;;;2.30;99.90;;;;;;5043811;28;20650;-91
2021/01/05 06:26:36;;;;;;;32.67;26.40;;;2.40;99.90;;;;;;5041207;28;20643;-93
2021/01/05 06:29:02;;;;;;;30.93;25.87;;;2.40;99.90;;;;;;5044206;28;20657;-95
2021/01/05 06:31:32;;;;;;;29.10;25.47;;;2.40;99.90;;;;;;5044913;28;20709;-92
2021/01/05 06:34:00;;;;;;;28.70;25.73;;;2.40;99.90;;;;;;5030231;28;20679;-95
2021/01/05 06:36:28;;;;;;;29.40;26.13;;;2.40;99.90;;;;;;5040698;28;20663;-94
2021/01/05 06:38:54;;;;;;;30.03;26.93;;;2.30;99.90;;;;;;5037746;28;20654;-93
2021/01/05 06:41:21;;;;;;;29.40;26.20;;;2.30;99.90;;;;;;5040427;28;21081;-92
2021/01/05 06:43:52;;;;;;;29.47;26.40;;;2.40;99.90;;;;;;5024597;28;20677;-95
2021/01/05 06:46:19;;;;;;;29.30;26.33;;;2.30;99.90;;;;;;5049099;28;20669;-91
2021/01/05 06:48:45;;;;;;;30.17;27.03;;;2.30;99.90;;;;;;5046018;28;20648;-92
2021/01/05 06:51:11;;;;;;;28.20;25.20;;;2.30;99.90;;;;;;5028570;28;20671;-94
2021/01/05 06:53:49;;;;;;;29.57;25.67;;;2.30;99.90;;;;;;5045351;28;20764;-95
2021/01/05 06:56:16;;;;;;;27.90;24.90;;;2.40;99.90;;;;;;5023534;28;21241;-95
2021/01/05 06:58:50;;;;;;;28.80;25.70;;;2.40;99.90;;;;;;5061615;28;20651;-95
2021/01/05 07:01:25;;;;;;;29.73;26.37;;;2.40;99.90;;;;;;5054719;28;20640;-95
2021/01/05 07:03:55;;;;;;;28.00;25.20;;;2.40;99.90;;;;;;5046346;28;20750;-95
2021/01/05 07:06:32;;;;;;;28.03;25.13;;;2.50;99.90;;;;;;5034133;28;21048;-93
2021/01/05 07:09:01;;;;;;;28.40;24.80;;;2.60;99.90;;;;;;5043768;28;20643;-96
2021/01/05 07:11:33;;;;;;;27.27;24.40;;;2.60;99.90;;;;;;5028885;28;20642;-95
2021/01/05 07:14:23;;;;;;;29.13;26.10;;;2.50;99.90;;;;;;5057866;28;20657;-94
2021/01/05 07:17:08;;;;;;;28.97;25.80;;;2.40;99.90;;;;;;5059711;28;20648;-96
2021/01/05 07:19:41;;;;;;;28.20;25.30;;;2.40;99.90;;;;;;5051385;28;20683;-95
2021/01/05 07:22:13;;;;;;;28.10;25.07;;;2.30;99.90;;;;;;5056595;28;20735;-94
2021/01/05 07:24:42;;;;;;;28.73;25.53;;;2.30;99.90;;;;;;5042180;28;20653;-93
2021/01/05 07:27:09;;;;;;;27.40;24.47;;;2.40;99.90;;;;;;5038534;28;20637;-94
2021/01/05 07:29:35;;;;;;;27.03;23.17;;;2.50;99.90;;;;;;5023780;28;20766;-93
2021/01/05 07:32:08;;;;;;;26.50;22.77;;;2.40;99.90;;;;;;5038835;28;21000;-94
2021/01/05 07:34:37;;;;;;;26.37;23.50;;;2.40;99.90;;;;;;5025204;28;21174;-93
2021/01/05 07:37:14;;;;;;;26.53;23.87;;;2.50;99.90;;;;;;5018649;28;21046;-92
2021/01/05 07:39:40;;;;;;;28.67;25.27;;;2.50;99.90;;;;;;5047089;28;20642;-93
2021/01/05 07:42:28;;;;;;;25.43;22.70;;;2.50;99.90;;;;;;5048045;28;20635;-92
2021/01/05 07:44:57;;;;;;;25.47;23.00;;;2.50;99.90;;;;;;5050353;28;20640;-90
2021/01/05 07:47:26;;;;;;;25.27;22.60;;;2.60;99.90;;;;;;5053574;28;20649;-94
2021/01/05 07:49:55;;;;;;;30.23;26.50;;;2.70;99.90;;;;;;5053992;28;20719;-94
2021/01/05 07:52:34;;;;;;;26.73;24.00;;;2.70;99.90;;;;;;5045369;28;20633;-91
2021/01/05 07:55:01;;;;;;;27.27;24.40;;;2.60;99.90;;;;;;5044306;28;20676;-91
2021/01/05 07:57:29;;;;;;;28.27;25.47;;;2.60;99.90;;;;;;5043376;28;20676;-91
2021/01/05 07:59:55;;;;;;;29.40;26.70;;;2.60;99.90;;;;;;5037118;28;20647;-92
2021/01/05 08:02:22;;;;;;;28.50;25.80;;;2.60;99.90;;;;;;5040012;28;20639;-94
2021/01/05 08:04:48;;;;;;;27.33;24.50;;;2.60;99.90;;;;;;5047961;28;20625;-91
2021/01/05 08:07:15;;;;;;;25.03;22.47;;;2.60;99.90;;;;;;5046116;28;20652;-92
2021/01/05 08:09:43;;;;;;;25.97;23.37;;;2.60;99.90;;;;;;5039564;28;20671;-92
2021/01/05 08:12:14;;;;;;;24.23;21.80;;;2.60;99.90;;;;;;5040188;28;20633;-93
2021/01/05 08:14:43;;;;;;;26.10;23.60;;;2.50;99.90;;;;;;5039459;28;20685;-93
2021/01/05 08:17:11;;;;;;;23.93;21.50;;;2.50;99.90;;;;;;5042724;28;21090;-92
2021/01/05 08:19:37;;;;;;;23.53;21.30;;;2.60;99.90;;;;;;5042819;28;20703;-93
2021/01/05 08:22:04;;;;;;;25.20;22.60;;;2.60;99.90;;;;;;5041488;28;20644;-93
2021/01/05 08:24:31;;;;;;;25.50;22.90;;;2.60;99.90;;;;;;5033469;28;20672;-93
2021/01/05 08:26:58;;;;;;;25.00;22.53;;;2.40;99.90;;;;;;5040850;28;21266;-92
2021/01/05 08:29:32;;;;;;;24.93;22.53;;;2.50;99.90;;;;;;5033473;28;20803;-92
2021/01/05 08:32:03;;;;;;;24.67;22.23;;;2.40;99.90;;;;;;5042392;28;20642;-92
2021/01/05 08:34:29;;;;;;;22.73;20.43;;;2.40;99.90;;;;;;5041845;28;20650;-92
2021/01/05 08:36:58;;;;;;;23.30;20.97;;;2.50;99.90;;;;;;5052765;28;20647;-92
2021/01/05 08:39:25;;;;;;;21.07;19.13;;;2.50;99.90;;;;;;5041935;28;20635;-92
2021/01/05 08:41:53;;;;;;;23.77;21.40;;;2.50;99.90;;;;;;5040387;28;20652;-92
2021/01/05 08:44:20;;;;;;;20.50;18.60;;;2.70;99.90;;;;;;5037028;28;20653;-90
2021/01/05 08:46:46;;;;;;;23.37;20.97;;;2.70;99.90;;;;;;5042195;28;20640;-92
2021/01/05 08:49:17;;;;;;;22.30;19.90;;;2.70;99.90;;;;;;5039565;28;20644;-92
2021/01/05 08:51:44;;;;;;;21.07;18.97;;;2.70;99.90;;;;;;5036237;28;20653;-93
2021/01/05 08:54:10;;;;;;;23.27;20.97;;;2.70;99.90;;;;;;5038067;28;20778;-91
2021/01/05 08:56:37;;;;;;;20.03;18.03;;;2.80;99.90;;;;;;5034053;28;20668;-92
2021/01/05 08:59:04;;;;;;;22.20;20.00;;;2.70;99.90;;;;;;5034649;28;20650;-92
2021/01/05 09:01:30;;;;;;;21.57;19.37;;;2.70;99.90;;;;;;5035466;28;20631;-92
2021/01/05 09:03:56;;;;;;;22.97;20.60;;;2.70;99.90;;;;;;5037261;28;20662;-92
2021/01/05 09:06:25;;;;;;;21.37;19.37;;;2.80;99.90;;;;;;5036119;28;20646;-92
2021/01/05 09:08:51;;;;;;;22.33;20.13;;;2.60;99.90;;;;;;5037343;28;20642;-93
2021/01/05 09:11:19;;;;;;;22.30;20.20;;;2.70;99.90;;;;;;5041473;28;20645;-92
2021/01/05 09:13:46;;;;;;;21.20;19.10;;;2.70;99.90;;;;;;5038261;28;20661;-93
2021/01/05 09:16:20;;;;;;;20.30;18.40;;;2.80;99.90;;;;;;5032404;28;21270;-92
2021/01/05 09:18:46;;;;;;;21.50;19.50;;;2.80;99.90;;;;;;5039593;28;20687;-92
2021/01/05 09:21:15;;;;;;;22.33;20.27;;;2.90;99.90;;;;;;5039179;28;20644;-93
2021/01/05 09:23:43;;;;;;;22.30;20.30;;;2.80;99.90;;;;;;5040923;28;20671;-94
2021/01/05 09:26:23;;;;;;;19.93;17.90;;;2.80;99.90;;;;;;5039651;28;20642;-93
2021/01/05 09:28:49;;;;;;;22.50;20.30;;;2.80;99.90;;;;;;5038113;28;20623;-92
2021/01/05 09:31:17;;;;;;;23.40;21.10;;;2.70;99.90;;;;;;5035554;28;20634;-93
2021/01/05 09:33:43;;;;;;;22.77;19.80;;;2.70;99.90;;;;;;5036393;28;21076;-93
2021/01/05 09:36:18;;;;;;;21.47;19.27;;;2.80;99.90;;;;;;5039908;28;21183;-93
2021/01/05 09:38:46;;;;;;;21.67;19.53;;;3.00;99.90;;;;;;5040721;28;20685;-93
2021/01/05 09:41:21;;;;;;;20.97;18.97;;;3.00;99.90;;;;;;5036747;28;20680;-93
2021/01/05 09:43:51;;;;;;;21.07;18.97;;;3.10;99.90;;;;;;5040897;28;20670;-92
2021/01/05 09:46:20;;;;;;;19.33;17.60;;;3.20;99.90;;;;;;5045963;28;20740;-92
2021/01/05 09:48:48;;;;;;;18.90;16.97;;;3.30;99.90;;;;;;5031503;28;20637;-92
2021/01/05 09:51:21;;;;;;;20.90;18.80;;;3.30;99.90;;;;;;5046878;28;20674;-92
2021/01/05 09:53:50;;;;;;;20.50;18.50;;;3.20;99.90;;;;;;5046969;28;20647;-92
2021/01/05 09:56:19;;;;;;;21.10;19.10;;;3.20;99.90;;;;;;5048191;28;20642;-93
2021/01/05 09:58:46;;;;;;;21.63;19.60;;;3.30;99.90;;;;;;5054203;28;20624;-93
2021/01/05 10:01:26;;;;;;;21.20;18.70;;;3.30;99.90;;;;;;5048496;28;20627;-93
2021/01/05 10:03:52;;;;;;;20.97;18.97;;;3.30;99.90;;;;;;5053791;28;20659;-92
2021/01/05 10:06:19;;;;;;;21.87;19.87;;;3.30;99.90;;;;;;5051851;28;20729;-91
2021/01/05 10:08:46;;;;;;;22.83;20.60;;;3.20;99.90;;;;;;5063319;28;20720;-92
2021/01/05 10:11:13;;;;;;;26.47;23.97;;;3.10;99.90;;;;;;5061224;28;20652;-91
2021/01/05 10:13:43;;;;;;;22.80;20.53;;;3.10;99.90;;;;;;5068103;28;20906;-94
2021/01/05 10:16:11;;;;;;;22.20;20.07;;;3.10;99.90;;;;;;5047246;28;20635;-93
2021/01/05 10:18:38;;;;;;;22.67;20.50;;;3.30;99.90;;;;;;5064980;28;20670;-92
2021/01/05 10:21:07;;;;;;;21.73;19.63;;;3.20;99.90;;;;;;5066403;28;20631;-92
2021/01/05 10:23:34;;;;;;;22.00;19.77;;;3.20;99.90;;;;;;5045864;28;20689;-92
2021/01/05 10:26:02;;;;;;;24.10;20.67;;;3.30;99.90;;;;;;5067915;28;20637;-92
2021/01/05 10:28:29;;;;;;;21.13;19.03;;;3.20;99.90;;;;;;5059030;28;20991;-92
2021/01/05 10:30:55;;;;;;;22.03;19.47;;;3.20;99.90;;;;;;5041971;28;20683;-93
2021/01/05 10:33:22;;;;;;;23.17;20.93;;;3.10;99.90;;;;;;5044259;28;20666;-93
2021/01/05 10:35:49;;;;;;;21.47;19.37;;;3.10;99.90;;;;;;5037027;28;20650;-93
2021/01/05 10:38:17;;;;;;;22.17;19.97;;;3.20;99.90;;;;;;5037553;28;20669;-91
2021/01/05 10:40:44;;;;;;;21.53;19.43;;;3.20;99.90;;;;;;5047730;28;20639;-94
2021/01/05 10:43:11;;;;;;;22.37;19.93;;;3.10;99.90;;;;;;5046714;28;20664;-94
2021/01/05 10:45:40;;;;;;;21.60;19.40;;;3.10;99.90;;;;;;5043706;28;20628;-92
2021/01/05 10:48:07;;;;;;;21.93;19.80;;;3.20;99.90;;;;;;5035564;28;21068;-91
2021/01/05 10:50:33;;;;;;;22.07;19.77;;;3.40;99.90;;;;;;5033391;28;20646;-91
2021/01/05 10:53:01;;;;;;;22.07;20.00;;;3.40;99.90;;;;;;5037522;28;20785;-93
2021/01/05 10:55:27;;;;;;;21.40;19.27;;;3.30;99.90;;;;;;5033842;28;20700;-92
2021/01/05 10:57:54;;;;;;;23.60;21.20;;;3.40;99.90;;;;;;5034600;28;20704;-92
2021/01/05 11:00:28;;;;;;;23.03;20.63;;;3.20;99.90;;;;;;5036601;28;20732;-92
2021/01/05 11:02:55;;;;;;;24.37;21.83;;;3.20;99.90;;;;;;5017143;28;20662;-92
2021/01/05 11:05:23;;;;;;;23.80;21.37;;;3.30;99.90;;;;;;5034285;28;21007;-92
2021/01/05 11:07:56;;;;;;;21.80;19.67;;;3.30;99.90;;;;;;5044820;28;20629;-91
2021/01/05 11:10:22;;;;;;;37.43;31.93;;;3.40;99.90;;;;;;5041743;28;21041;-91
2021/01/05 11:12:58;;;;;;;30.30;26.83;;;3.40;99.90;;;;;;5040487;28;20733;-92
2021/01/05 11:15:25;;;;;;;25.30;21.20;;;3.40;99.90;;;;;;5042763;28;20669;-92
2021/01/05 11:17:52;;;;;;;22.30;20.00;;;3.40;99.90;;;;;;5040412;28;21082;-92
2021/01/05 11:20:20;;;;;;;24.50;21.87;;;3.60;99.90;;;;;;5043677;28;20647;-92
2021/01/05 11:22:50;;;;;;;22.87;20.57;;;3.50;99.90;;;;;;5037292;28;20725;-92
2021/01/05 11:25:18;;;;;;;23.37;20.87;;;3.40;99.90;;;;;;5038471;28;20626;-92
2021/01/05 11:27:46;;;;;;;23.27;20.83;;;3.30;99.90;;;;;;5040751;28;20707;-92
2021/01/05 11:30:19;;;;;;;24.27;21.90;;;3.40;99.90;;;;;;5042060;28;20836;-93
2021/01/05 11:32:46;;;;;;;24.53;22.13;;;3.50;99.90;;;;;;5038254;28;20671;-92
2021/01/05 11:35:13;;;;;;;23.60;21.27;;;3.50;99.90;;;;;;5017913;28;20660;-93
2021/01/05 11:37:40;;;;;;;23.80;21.60;;;3.50;99.90;;;;;;5037408;28;20676;-91
2021/01/05 11:40:12;;;;;;;25.17;22.60;;;3.50;99.90;;;;;;5034141;28;20626;-91
2021/01/05 11:42:38;;;;;;;24.43;22.00;;;3.50;99.90;;;;;;5037971;28;20678;-91
2021/01/05 11:45:07;;;;;;;22.67;20.47;;;3.50;99.90;;;;;;5041077;28;20648;-91
2021/01/05 11:47:33;;;;;;;24.30;22.00;;;3.50;99.90;;;;;;5040878;28;21075;-93
2021/01/05 11:50:05;;;;;;;26.97;24.10;;;3.50;99.90;;;;;;5039041;28;20640;-91
2021/01/05 11:52:33;;;;;;;24.63;21.90;;;3.40;99.90;;;;;;5034421;28;20658;-93
2021/01/05 11:55:00;;;;;;;23.67;21.27;;;3.40;99.90;;;;;;5038286;28;20692;-93
2021/01/05 11:57:27;;;;;;;24.17;21.60;;;3.20;99.90;;;;;;5019725;28;20678;-92
2021/01/05 11:59:53;;;;;;;24.40;22.07;;;3.40;99.90;;;;;;5040642;28;20642;-93
2021/01/05 12:02:20;;;;;;;23.80;21.50;;;3.40;99.90;;;;;;5023553;28;20675;-92
2021/01/05 12:04:46;;;;;;;25.47;23.07;;;3.40;99.90;;;;;;5017863;28;20704;-92
2021/01/05 12:07:13;;;;;;;25.63;22.93;;;3.50;99.90;;;;;;5013621;28;21059;-91
2021/01/05 12:09:39;;;;;;;26.40;23.80;;;3.50;99.90;;;;;;5036468;28;20674;-91
2021/01/05 12:12:08;;;;;;;27.13;24.43;;;3.40;99.90;;;;;;5022570;28;20649;-91
2021/01/05 12:14:34;;;;;;;24.63;22.30;;;3.40;99.90;;;;;;5039576;28;20679;-92
2021/01/05 12:17:05;;;;;;;25.90;23.20;;;3.50;99.90;;;;;;5037045;28;20679;-91
2021/01/05 12:19:33;;;;;;;22.93;20.53;;;3.40;99.90;;;;;;5036657;28;20639;-92
2021/01/05 12:22:01;;;;;;;25.47;22.87;;;3.30;99.90;;;;;;5033537;28;21036;-91
2021/01/05 12:24:29;;;;;;;25.33;22.93;;;3.30;99.90;;;;;;5035259;28;20686;-92
2021/01/05 12:27:01;;;;;;;24.53;22.03;;;3.40;99.90;;;;;;5038793;28;20642;-92
2021/01/05 12:29:31;;;;;;;24.37;21.97;;;3.50;99.90;;;;;;5036708;28;21175;-92
2021/01/05 12:32:00;;;;;;;24.43;21.93;;;3.50;99.90;;;;;;5040462;28;20649;-91
2021/01/05 12:34:28;;;;;;;25.30;22.70;;;3.50;99.90;;;;;;5034841;28;21053;-92
2021/01/05 12:36:54;;;;;;;25.00;22.40;;;3.40;99.90;;;;;;5046805;28;20670;-92
2021/01/05 12:39:23;;;;;;;25.93;23.13;;;3.40;99.90;;;;;;5055591;28;20631;-91
2021/01/05 12:41:50;;;;;;;24.83;21.30;;;3.30;99.90;;;;;;5047217;28;20683;-91
2021/01/05 12:44:22;;;;;;;25.07;22.47;;;3.40;99.90;;;;;;5042161;28;20676;-92
2021/01/05 12:46:51;;;;;;;25.60;23.10;;;3.40;99.90;;;;;;5018078;28;21105;-91
2021/01/05 12:49:18;;;;;;;27.40;24.50;;;3.40;99.90;;;;;;5032005;28;20645;-92
2021/01/05 12:51:46;;;;;;;24.73;22.13;;;3.40;99.90;;;;;;5033205;28;20636;-92
2021/01/05 12:54:18;;;;;;;27.00;24.10;;;3.50;99.90;;;;;;5016884;28;20663;-92
2021/01/05 12:56:45;;;;;;;27.77;24.80;;;3.40;99.90;;;;;;5038964;28;20677;-93
2021/01/05 12:59:17;;;;;;;24.47;22.00;;;3.50;99.90;;;;;;5035511;28;20644;-93
2021/01/05 13:01:44;;;;;;;26.40;23.00;;;3.50;99.90;;;;;;5001932;28;21049;-95
2021/01/05 13:04:12;;;;;;;26.93;24.30;;;3.40;99.90;;;;;;5035669;28;20654;-93
2021/01/05 13:06:39;;;;;;;27.47;23.73;;;3.40;99.90;;;;;;5032111;28;20989;-92
2021/01/05 13:09:07;;;;;;;27.43;23.23;;;3.40;99.90;;;;;;5038098;28;20733;-92
2021/01/05 13:11:34;;;;;;;27.63;23.90;;;3.50;99.90;;;;;;5042119;28;20627;-93
2021/01/05 13:14:01;;;;;;;26.47;23.67;;;3.40;99.90;;;;;;5035033;28;20650;-92
2021/01/05 13:16:29;;;;;;;25.40;22.80;;;3.60;99.90;;;;;;5037837;28;20650;-92
2021/01/05 13:19:00;;;;;;;26.97;22.67;;;3.50;99.90;;;;;;5037344;28;20672;-91
2021/01/05 13:21:31;;;;;;;25.90;23.33;;;3.40;99.90;;;;;;5027933;28;20635;-91
2021/01/05 13:24:03;;;;;;;25.47;22.97;;;3.30;99.90;;;;;;5037497;28;20752;-92
2021/01/05 13:26:30;;;;;;;24.33;21.93;;;3.40;99.90;;;;;;5040706;28;20687;-92
2021/01/05 13:28:56;;;;;;;24.57;22.07;;;3.50;99.90;;;;;;5040015;28;20625;-93
2021/01/05 13:31:22;;;;;;;23.27;19.73;;;3.50;99.90;;;;;;5022324;28;20631;-92
2021/01/05 13:33:50;;;;;;;25.63;22.57;;;3.50;99.90;;;;;;5046385;28;20664;-92
2021/01/05 13:36:24;;;;;;;27.10;21.50;;;3.60;99.90;;;;;;5039416;28;21050;-93
2021/01/05 13:38:53;;;;;;;24.30;21.90;;;3.50;99.90;;;;;;5038521;28;20678;-94
2021/01/05 13:41:25;;;;;;;23.50;20.63;;;3.50;99.90;;;;;;5022916;28;20652;-94
2021/01/05 13:43:51;;;;;;;24.13;21.67;;;3.50;99.90;;;;;;5035755;28;21078;-94
2021/01/05 13:46:27;;;;;;;22.57;19.87;;;3.50;99.90;;;;;;5042213;28;20650;-94
2021/01/05 13:48:54;;;;;;;22.53;20.33;;;3.60;99.90;;;;;;5042051;28;20669;-94
2021/01/05 13:51:26;;;;;;;22.47;20.17;;;3.60;99.90;;;;;;5049584;28;20721;-93
2021/01/05 13:53:54;;;;;;;23.67;21.20;;;3.50;99.90;;;;;;5043221;28;20705;-94
2021/01/05 13:56:21;;;;;;;22.37;20.07;;;3.50;99.90;;;;;;5046051;28;20642;-94
2021/01/05 13:58:48;;;;;;;22.17;19.90;;;3.40;99.90;;;;;;5030259;28;20697;-93
2021/01/05 14:01:15;;;;;;;23.73;21.40;;;3.50;99.90;;;;;;5042952;28;20848;-94
2021/01/05 14:03:45;;;;;;;21.90;19.30;;;3.60;99.90;;;;;;5043845;28;20748;-94
2021/01/05 14:06:17;;;;;;;21.77;19.60;;;3.50;99.90;;;;;;5044572;28;20654;-93
2021/01/05 14:08:45;;;;;;;21.77;19.57;;;3.50;99.90;;;;;;5023349;28;20653;-93
2021/01/05 14:11:17;;;;;;;21.57;19.50;;;3.50;99.90;;;;;;5040725;28;20649;-92
2021/01/05 14:13:44;;;;;;;24.40;22.00;;;3.50;99.90;;;;;;5039293;28;20661;-93
2021/01/05 14:16:13;;;;;;;23.37;20.97;;;3.60;99.90;;;;;;5040919;28;20660;-93
2021/01/05 14:18:44;;;;;;;22.47;20.27;;;3.60;99.90;;;;;;5042660;28;20658;-92
2021/01/05 14:21:11;;;;;;;22.07;19.90;;;3.40;99.90;;;;;;5029291;28;21193;-92
2021/01/05 14:23:37;;;;;;;21.57;19.30;;;3.30;99.90;;;;;;5041308;28;20651;-92
2021/01/05 14:26:04;;;;;;;21.40;19.20;;;3.40;99.90;;;;;;5021646;28;20631;-95
2021/01/05 14:28:33;;;;;;;24.30;21.73;;;3.40;99.90;;;;;;5040393;28;20714;-94
2021/01/05 14:31:01;;;;;;;22.57;20.30;;;3.40;99.90;;;;;;5044469;28;20643;-93
2021/01/05 14:33:31;;;;;;;22.37;20.20;;;3.50;99.90;;;;;;5042886;28;20703;-92
2021/01/05 14:35:58;;;;;;;21.20;19.23;;;3.50;99.90;;;;;;5042717;28;21343;-92
2021/01/05 14:38:30;;;;;;;22.40;20.13;;;3.40;99.90;;;;;;5018860;28;20674;-92
2021/01/05 14:40:56;;;;;;;22.97;20.47;;;3.30;99.90;;;;;;5065646;28;20642;-92
2021/01/05 14:43:23;;;;;;;24.07;21.57;;;3.40;99.90;;;;;;5057219;28;20649;-93
2021/01/05 14:45:50;;;;;;;22.63;20.47;;;3.40;99.90;;;;;;5067610;28;20634;-93
2021/01/05 14:48:17;;;;;;;21.60;19.30;;;3.50;99.90;;;;;;5064378;28;20647;-92
2021/01/05 14:50:45;;;;;;;20.27;18.10;;;3.50;99.90;;;;;;5058101;28;20653;-92
2021/01/05 14:53:12;;;;;;;20.50;18.40;;;3.50;99.90;;;;;;5063911;28;20646;-91
2021/01/05 14:55:39;;;;;;;22.40;20.10;;;3.50;99.90;;;;;;5061127;28;20652;-93
2021/01/05 14:58:05;;;;;;;20.10;18.10;;;3.40;99.90;;;;;;5065132;28;20651;-93
2021/01/05 15:00:31;;;;;;;21.77;19.67;;;3.30;99.90;;;;;;5058416;28;20639;-93
2021/01/05 15:02:58;;;;;;;20.67;18.67;;;3.40;99.90;;;;;;5066044;28;20744;-92
2021/01/05 15:05:25;;;;;;;20.77;18.87;;;3.30;99.90;;;;;;5066101;28;20610;-93